Wrangell, AK

8:17 AM AKDT on August 20, 2014 (GMT -0800)
Wrangell | Change Station
CLOSE
Current Station
Airport
Location: Wrangell,
Elevation: 43 ft
Nearby Weather Stations

Elev 43 ft 56.48 °N, 132.37 °W | Updated 21 minutes ago

Mostly Cloudy
Mostly Cloudy
48 °F
Feels Like 48 °F
N
0
Wind Variable Wind from North

Today
High -- | Low -- °F
--% Chance of Precip.
Yesterday
High -- | Low -- °F
Precip. -- in
5:29 AM 8:15 PM
Waning Crescent, 21% visible
Pressure 30.00 in
Visibility 0.2 miles
Clouds Mostly Cloudy 0 ft
Dew Point 45 °F
Humidity 87%
Rainfall 0.00 in
Snow Depth Not available.
UV 1 out of 12
Pollen Not available.
Air Quality Not available.
Flu Activity Not available.
METAR PAWG 201556Z 00000KT 1/4SM BKN000 09/07 A3000 RMK AO1 WEA:PRFG FG BKN000

More Conditions Fewer Conditions

Pressure 30.00 in
Visibility 0.2 miles
Clouds Mostly Cloudy 0 ft
Dew Point 45 °F
Humidity 87%
Rainfall 0.00 in
Snow Depth Not available.
UV 1 out of 12
Pollen Not available.
Air Quality Not available.
Flu Activity Not available.
METAR PAWG 201556Z 00000KT 1/4SM BKN000 09/07 A3000 RMK AO1 WEA:PRFG FG BKN000

More Conditions Fewer Conditions

10-Day Weather Forecast

Almanac

Astronomy

Aug. 20, 2014 Rise Set
Actual Time 5:29 AM AKDT 8:15 PM AKDT
Civil Twilight 4:46 AM AKDT 8:57 PM AKDT
Nautical Twilight 3:49 AM AKDT 9:53 PM AKDT
Astronomical Twilight 2:34 AM AKDT 11:07 PM AKDT
Moon 12:53 AM AKDT 5:25 PM AKDT
Length of Visible Light 16h 11m
Length of Day
14h 46m
Tomorrow will be 4m 30s shorter.
Waning Crescent, 21% of the Moon is Illuminated
Today
Waning Crescent
Aug 25
New
Sep 2
First Quarter
Sep 8
Full
Sep 15
Last Quarter

Today's Extremes

State Highs State Lows

Community

WunderPhotos

Upload Photos

1,745,684 photos uploaded!

Nearby

Snow Depth

Station Depth Elevation
Long Lake 0 in 820 ft
Upper Tsaina River 0 in 1750 ft
Moraine 0 in 2100 ft
Grandview 0 in 1100 ft
Grouse Creek Divide 0 in 700 ft

Earthquake Activity

City Distance Mag. Time & Date
No recent earthquake activity has been reported nearby.
Minimum magnitude displayed is 2.5.

Coastal Water Temperatures

Place Temperature
No Stations Reporting

Nearby Weather Stations